Time;durP1;ratioP1;P1;durP2;ratioP2;P2;SDS_P1;SDS_P2;PMS_P1;PMS_P2;Temp;Humidity;BMP_temperature;BMP_pressure;BME280_temperature;BME280_humidity;BME280_pressure;Samples;Min_cycle;Max_cycle;Signal;HPM_P1;HPM_P2
2023/07/29 00:02:11;;;;;;;1999.90;999.90;;;21.40;99.90;;;;;;4992781;28;20445;-73
2023/07/29 00:04:38;;;;;;;1999.90;999.90;;;21.20;99.90;;;;;;4986098;28;20946;-70
2023/07/29 00:07:06;;;;;;;1999.90;999.90;;;21.10;99.90;;;;;;4986253;28;20438;-71
2023/07/29 00:09:33;;;;;;;1999.90;999.90;;;20.90;99.90;;;;;;4985673;28;20509;-70
2023/07/29 00:11:59;;;;;;;1999.90;999.90;;;20.90;99.90;;;;;;4984842;28;20439;-71
2023/07/29 00:14:26;;;;;;;1999.90;999.90;;;20.80;99.90;;;;;;4993056;28;20434;-73
2023/07/29 00:16:53;;;;;;;1999.90;999.90;;;20.60;99.90;;;;;;4985419;28;20461;-71
2023/07/29 00:19:23;;;;;;;1999.90;999.90;;;20.60;99.90;;;;;;4986062;28;20437;-71
2023/07/29 00:21:49;;;;;;;1999.90;999.90;;;20.40;99.90;;;;;;4989889;28;20519;-71
2023/07/29 00:24:18;;;;;;;1999.90;999.90;;;20.50;99.90;;;;;;4991350;28;20953;-71
2023/07/29 00:26:44;;;;;;;1999.90;999.90;;;20.70;99.90;;;;;;4983223;28;20436;-70
2023/07/29 00:29:11;;;;;;;1999.90;999.90;;;20.30;99.90;;;;;;4989395;28;20449;-70
2023/07/29 00:31:38;;;;;;;1999.90;999.90;;;20.20;99.90;;;;;;4987908;28;20446;-70
2023/07/29 00:34:04;;;;;;;1999.90;999.90;;;20.20;99.90;;;;;;4982627;28;20472;-71
2023/07/29 00:36:31;;;;;;;1999.90;999.90;;;20.10;99.90;;;;;;4989679;28;20438;-71
2023/07/29 00:38:58;;;;;;;1999.90;999.90;;;20.20;99.90;;;;;;4976329;28;20439;-71
2023/07/29 00:41:27;;;;;;;1999.90;999.90;;;20.20;99.90;;;;;;4990179;28;20760;-71
2023/07/29 00:43:54;;;;;;;1999.90;999.90;;;20.20;99.90;;;;;;4984736;28;20442;-70
2023/07/29 00:46:21;;;;;;;1999.90;999.90;;;19.90;99.90;;;;;;4987429;28;20794;-69
2023/07/29 00:48:48;;;;;;;1999.90;999.90;;;19.80;99.90;;;;;;4985925;28;20428;-71
2023/07/29 00:51:15;;;;;;;1999.90;999.90;;;19.80;99.90;;;;;;4981791;28;20434;-70
2023/07/29 00:53:42;;;;;;;1999.90;999.90;;;19.70;99.90;;;;;;4981079;28;20440;-69
2023/07/29 00:56:08;;;;;;;1999.90;999.90;;;19.60;99.90;;;;;;4987899;28;20440;-71
2023/07/29 00:58:37;;;;;;;1999.90;999.90;;;19.70;99.90;;;;;;4986073;28;20442;-71
2023/07/29 01:01:03;;;;;;;1999.90;999.90;;;19.80;99.90;;;;;;4986192;28;20788;-70
2023/07/29 01:03:30;;;;;;;1999.90;999.90;;;19.90;99.90;;;;;;4982759;28;20438;-71
2023/07/29 01:06:09;;;;;;;1999.90;999.90;;;20.00;99.90;;;;;;4987268;28;20441;-71
2023/07/29 01:08:45;;;;;;;1999.90;999.90;;;19.90;99.90;;;;;;4977302;28;20446;-71
2023/07/29 01:11:29;;;;;;;1999.90;999.90;;;19.60;99.90;;;;;;4981490;28;20444;-70
2023/07/29 01:14:03;;;;;;;1999.90;999.90;;;19.40;99.90;;;;;;4976646;28;20443;-70
2023/07/29 01:16:35;;;;;;;1999.90;999.90;;;19.50;99.90;;;;;;4983984;28;20463;-71
2023/07/29 01:19:07;;;;;;;1999.90;999.90;;;19.40;99.90;;;;;;4979484;28;20939;-70
2023/07/29 01:21:36;;;;;;;1999.90;999.90;;;19.50;99.90;;;;;;4988050;28;20473;-71
2023/07/29 01:24:04;;;;;;;1999.90;999.90;;;19.40;99.90;;;;;;4988118;28;20813;-71
2023/07/29 01:26:31;;;;;;;1999.90;999.90;;;19.50;99.90;;;;;;4988587;28;20450;-71
2023/07/29 01:28:58;;;;;;;1999.90;999.90;;;19.60;99.90;;;;;;4985014;28;20441;-71
2023/07/29 01:31:32;;;;;;;1999.90;999.90;;;19.60;99.90;;;;;;4984181;28;20438;-71
2023/07/29 01:34:06;;;;;;;1999.90;999.90;;;19.70;99.90;;;;;;4989122;28;20457;-71
2023/07/29 01:36:34;;;;;;;1999.90;999.90;;;19.60;99.90;;;;;;4984765;28;20438;-70
2023/07/29 01:39:04;;;;;;;1999.90;999.90;;;19.50;99.90;;;;;;4983667;28;20430;-69
2023/07/29 01:41:31;;;;;;;1999.90;999.90;;;19.70;99.90;;;;;;4982192;28;20479;-70
2023/07/29 01:43:58;;;;;;;1999.90;999.90;;;19.80;99.90;;;;;;4987716;28;20434;-69
2023/07/29 01:46:24;;;;;;;1999.90;999.90;;;19.80;99.90;;;;;;4977666;28;20439;-71
2023/07/29 01:48:51;;;;;;;1999.90;999.90;;;19.80;99.90;;;;;;4990009;28;20521;-70
2023/07/29 01:51:18;;;;;;;1999.90;999.90;;;20.00;99.90;;;;;;4987328;28;20946;-70
2023/07/29 01:53:45;;;;;;;1999.90;999.90;;;19.90;99.90;;;;;;4984591;28;20438;-70
2023/07/29 01:56:13;;;;;;;1999.90;999.90;;;20.00;99.90;;;;;;4983181;28;20438;-70
2023/07/29 01:58:39;;;;;;;1999.90;999.90;;;19.90;99.90;;;;;;4984550;28;20441;-70
2023/07/29 02:01:06;;;;;;;1999.90;999.90;;;19.90;99.90;;;;;;4989089;28;20434;-71
2023/07/29 02:03:33;;;;;;;1999.90;999.90;;;19.90;99.90;;;;;;4987292;28;20462;-71
2023/07/29 02:05:59;;;;;;;1999.90;999.90;;;19.80;99.90;;;;;;4981076;28;20438;-71
2023/07/29 02:08:26;;;;;;;1999.90;999.90;;;19.80;99.90;;;;;;4986129;28;20474;-71
2023/07/29 02:10:53;;;;;;;1999.90;999.90;;;19.80;99.90;;;;;;4972948;28;20439;-70
2023/07/29 02:13:21;;;;;;;1999.90;999.90;;;19.70;99.90;;;;;;4989302;28;20434;-71
2023/07/29 02:15:47;;;;;;;1999.90;999.90;;;19.80;99.90;;;;;;4991115;28;20657;-71
2023/07/29 02:18:14;;;;;;;1999.90;999.90;;;19.80;99.90;;;;;;4989315;28;20442;-70
2023/07/29 02:20:45;;;;;;;1999.90;999.90;;;19.80;99.90;;;;;;4990200;28;20441;-71
2023/07/29 02:23:12;;;;;;;1999.90;999.90;;;19.70;99.90;;;;;;4981623;28;21054;-70
2023/07/29 02:25:39;;;;;;;1999.90;999.90;;;19.60;99.90;;;;;;4987734;28;20446;-71
2023/07/29 02:28:05;;;;;;;1999.90;999.90;;;19.40;99.90;;;;;;4974187;28;20468;-72
2023/07/29 02:30:33;;;;;;;1999.90;999.90;;;19.40;99.90;;;;;;4983552;28;20442;-71
2023/07/29 02:33:01;;;;;;;1999.90;999.90;;;19.20;99.90;;;;;;4979887;28;22319;-71
2023/07/29 02:35:27;;;;;;;1999.90;999.90;;;19.10;99.90;;;;;;4976786;28;20467;-71
2023/07/29 02:37:54;;;;;;;1999.90;999.90;;;19.00;99.90;;;;;;4983393;28;20441;-71
2023/07/29 02:40:22;;;;;;;1999.90;999.90;;;19.10;99.90;;;;;;4981357;28;21306;-70
2023/07/29 02:42:49;;;;;;;1999.90;999.90;;;19.10;99.90;;;;;;4978804;28;20491;-71
2023/07/29 02:45:16;;;;;;;1999.90;999.90;;;18.90;99.90;;;;;;4981032;28;20445;-70
2023/07/29 02:47:44;;;;;;;1999.90;999.90;;;18.90;99.90;;;;;;4976028;28;20438;-71
2023/07/29 02:50:10;;;;;;;1999.90;999.90;;;18.90;99.90;;;;;;4982743;28;20436;-70
2023/07/29 02:52:37;;;;;;;1999.90;999.90;;;18.80;99.90;;;;;;4985842;28;20448;-71
2023/07/29 02:55:05;;;;;;;1999.90;999.90;;;18.80;99.90;;;;;;4980582;28;20869;-71
2023/07/29 02:57:31;;;;;;;1999.90;999.90;;;18.60;99.90;;;;;;4989188;28;20438;-70
2023/07/29 02:59:58;;;;;;;1999.90;999.90;;;18.50;99.90;;;;;;4984178;28;20441;-71
2023/07/29 03:02:25;;;;;;;1999.90;999.90;;;18.30;99.90;;;;;;4982823;28;20445;-70
2023/07/29 03:04:53;;;;;;;1999.90;999.90;;;18.30;99.90;;;;;;4984194;28;20473;-71
2023/07/29 03:07:20;;;;;;;1999.90;999.90;;;18.30;99.90;;;;;;4981026;28;20436;-71
2023/07/29 03:09:47;;;;;;;1999.90;999.90;;;18.40;99.90;;;;;;4977094;28;20474;-71
2023/07/29 03:12:13;;;;;;;1999.90;999.90;;;18.40;99.90;;;;;;4988900;28;20826;-69
2023/07/29 03:14:41;;;;;;;1999.90;999.90;;;18.30;99.90;;;;;;4986506;28;20432;-71
2023/07/29 03:17:07;;;;;;;1999.90;999.90;;;18.30;99.90;;;;;;4976439;28;20820;-71
2023/07/29 03:19:34;;;;;;;1999.90;999.90;;;18.20;99.90;;;;;;4980321;28;20929;-71
2023/07/29 03:22:03;;;;;;;1999.90;999.90;;;18.30;99.90;;;;;;4978884;28;20861;-69
2023/07/29 03:24:29;;;;;;;1999.90;999.90;;;18.40;99.90;;;;;;4979504;28;20438;-71
2023/07/29 03:26:56;;;;;;;1999.90;999.90;;;18.40;99.90;;;;;;4981055;28;20436;-71
2023/07/29 03:29:23;;;;;;;1999.90;999.90;;;18.50;99.90;;;;;;4980921;28;20483;-71
2023/07/29 03:31:50;;;;;;;1999.90;999.90;;;18.40;99.90;;;;;;4977703;28;20447;-71
2023/07/29 03:34:16;;;;;;;1999.90;999.90;;;18.50;99.90;;;;;;4985403;28;20443;-71
2023/07/29 03:36:45;;;;;;;1999.90;999.90;;;18.70;99.90;;;;;;4987352;28;20441;-70
2023/07/29 03:39:13;;;;;;;1999.90;999.90;;;18.60;99.90;;;;;;4985287;28;22208;-71
2023/07/29 03:41:40;;;;;;;1999.90;999.90;;;18.80;99.90;;;;;;4981515;28;20434;-71
2023/07/29 03:44:07;;;;;;;1999.90;999.90;;;18.90;99.90;;;;;;4987222;28;20802;-71
2023/07/29 03:46:33;;;;;;;1999.90;999.90;;;18.90;99.90;;;;;;4984432;28;20444;-71
2023/07/29 03:49:00;;;;;;;1999.90;999.90;;;18.80;99.90;;;;;;4985044;28;21034;-70
2023/07/29 03:51:27;;;;;;;1999.90;999.90;;;18.70;99.90;;;;;;4987117;28;20434;-71
2023/07/29 03:53:54;;;;;;;1999.90;999.90;;;18.90;99.90;;;;;;4979035;28;20947;-71
2023/07/29 03:56:22;;;;;;;1999.90;999.90;;;19.00;99.90;;;;;;4976483;28;20451;-70
2023/07/29 03:58:49;;;;;;;1999.90;999.90;;;19.10;99.90;;;;;;4979413;28;20924;-71
2023/07/29 04:01:16;;;;;;;1999.90;999.90;;;19.20;99.90;;;;;;4981943;28;20446;-70
2023/07/29 04:03:42;;;;;;;1999.90;999.90;;;19.30;99.90;;;;;;4978064;28;20937;-71
2023/07/29 04:06:09;;;;;;;1999.90;999.90;;;19.40;99.90;;;;;;4983843;28;20565;-71
2023/07/29 04:08:36;;;;;;;1999.90;999.90;;;19.40;99.90;;;;;;4984395;28;20443;-70
2023/07/29 04:11:02;;;;;;;1999.90;999.90;;;19.50;99.90;;;;;;4985832;28;20813;-71
2023/07/29 04:13:30;;;;;;;1999.90;999.90;;;19.50;99.90;;;;;;4981103;28;20434;-70
2023/07/29 04:15:57;;;;;;;1999.90;999.90;;;19.60;99.90;;;;;;4983545;28;20451;-70
2023/07/29 04:18:24;;;;;;;1999.90;999.90;;;19.40;99.90;;;;;;4978408;28;20954;-71
2023/07/29 04:20:51;;;;;;;1999.90;999.90;;;19.40;99.90;;;;;;4977265;28;20544;-71
2023/07/29 04:23:17;;;;;;;1999.90;999.90;;;19.70;99.90;;;;;;4978522;28;20804;-71
2023/07/29 04:25:44;;;;;;;1999.90;999.90;;;19.80;99.90;;;;;;4980005;28;20442;-71
2023/07/29 04:28:11;;;;;;;1999.90;999.90;;;19.70;99.90;;;;;;4974835;28;20447;-71
2023/07/29 04:30:39;;;;;;;1999.90;999.90;;;19.90;99.90;;;;;;4982578;28;20438;-71
2023/07/29 04:33:05;;;;;;;1999.90;999.90;;;20.00;99.90;;;;;;4977870;28;20810;-70
2023/07/29 04:35:32;;;;;;;1999.90;999.90;;;19.60;99.90;;;;;;4987257;28;20438;-70
2023/07/29 04:37:59;;;;;;;1999.90;999.90;;;19.80;99.90;;;;;;4983128;28;20462;-70
2023/07/29 04:40:25;;;;;;;1999.90;999.90;;;19.80;99.90;;;;;;4984187;28;20434;-71
2023/07/29 04:42:52;;;;;;;1999.90;999.90;;;19.90;99.90;;;;;;4980240;28;20435;-71
2023/07/29 04:45:20;;;;;;;1999.90;999.90;;;20.10;99.90;;;;;;4977724;28;21048;-70
2023/07/29 04:47:48;;;;;;;1999.90;999.90;;;20.30;99.90;;;;;;4981939;28;20440;-72
2023/07/29 04:50:14;;;;;;;1999.90;999.90;;;20.40;99.90;;;;;;4977403;28;20445;-72
2023/07/29 04:52:41;;;;;;;1999.90;999.90;;;20.70;99.90;;;;;;4992091;28;20434;-73
2023/07/29 04:55:08;;;;;;;1999.90;999.90;;;20.60;99.90;;;;;;4988438;28;20438;-73
2023/07/29 04:57:35;;;;;;;1999.90;999.90;;;20.60;99.90;;;;;;4984724;28;20448;-72
2023/07/29 05:00:03;;;;;;;1999.90;999.90;;;20.60;99.90;;;;;;4983522;28;20438;-73
2023/07/29 05:02:30;;;;;;;1999.90;999.90;;;20.60;99.90;;;;;;4989742;28;20468;-73
2023/07/29 05:04:58;;;;;;;1999.90;999.90;;;20.70;99.90;;;;;;4987637;28;20440;-73
2023/07/29 05:07:24;;;;;;;1999.90;999.90;;;20.90;99.90;;;;;;4988703;28;20434;-73
2023/07/29 05:09:51;;;;;;;1999.90;999.90;;;21.20;99.90;;;;;;4984376;28;20434;-73
2023/07/29 05:12:18;;;;;;;1999.90;999.90;;;21.20;99.90;;;;;;4984364;28;20884;-73
2023/07/29 05:14:45;;;;;;;1999.90;999.90;;;21.40;99.90;;;;;;4977556;28;20447;-70
2023/07/29 05:17:11;;;;;;;1999.90;999.90;;;20.70;99.90;;;;;;4989203;28;20446;-71
2023/07/29 05:19:38;;;;;;;1999.90;999.90;;;21.00;99.90;;;;;;4982221;28;20446;-71
2023/07/29 05:22:06;;;;;;;1999.90;999.90;;;21.40;99.90;;;;;;4989468;28;20461;-70
2023/07/29 05:24:33;;;;;;;1999.90;999.90;;;21.30;99.90;;;;;;4988237;28;20441;-71
2023/07/29 05:27:00;;;;;;;1999.90;999.90;;;21.30;99.90;;;;;;4983719;28;20995;-73
2023/07/29 05:29:26;;;;;;;1999.90;999.90;;;21.40;99.90;;;;;;4977630;28;20442;-73
2023/07/29 05:31:53;;;;;;;1999.90;999.90;;;21.40;99.90;;;;;;4987569;28;20930;-73
2023/07/29 05:34:20;;;;;;;1999.90;999.90;;;21.40;99.90;;;;;;4991620;28;20461;-74
2023/07/29 05:36:46;;;;;;;1999.90;999.90;;;21.50;99.90;;;;;;4976151;28;20956;-73
2023/07/29 05:39:14;;;;;;;1999.90;999.90;;;21.20;99.90;;;;;;4984490;28;20437;-71
2023/07/29 05:41:41;;;;;;;1999.90;999.90;;;21.10;99.90;;;;;;4985944;28;20436;-70
2023/07/29 05:44:08;;;;;;;1999.90;999.90;;;21.10;99.90;;;;;;4985829;28;20445;-72
2023/07/29 05:46:34;;;;;;;1999.90;999.90;;;21.00;99.90;;;;;;4987016;28;20436;-71
2023/07/29 05:49:01;;;;;;;1999.90;999.90;;;20.80;99.90;;;;;;4978158;28;20813;-71
2023/07/29 05:51:29;;;;;;;1999.90;999.90;;;21.00;99.90;;;;;;4985476;28;20922;-71
2023/07/29 05:53:55;;;;;;;1999.90;999.90;;;21.20;99.90;;;;;;4980235;28;20434;-71
2023/07/29 05:56:23;;;;;;;1999.90;999.90;;;21.10;99.90;;;;;;5003738;23;20446;-70
2023/07/29 05:58:50;;;;;;;1999.90;999.90;;;20.80;99.90;;;;;;4983538;28;20969;-68
2023/07/29 06:01:17;;;;;;;1999.90;999.90;;;20.70;99.90;;;;;;4985454;28;20442;-67
2023/07/29 06:03:44;;;;;;;1999.90;999.90;;;20.70;99.90;;;;;;5000806;28;20544;-68
2023/07/29 06:06:10;;;;;;;1999.90;999.90;;;20.70;99.90;;;;;;4978073;28;20444;-68
2023/07/29 06:08:37;;;;;;;1999.90;999.90;;;20.60;99.90;;;;;;4974553;28;20912;-68
2023/07/29 06:11:06;;;;;;;1999.90;999.90;;;20.50;99.90;;;;;;4980845;28;20443;-68
2023/07/29 06:13:34;;;;;;;1999.90;999.90;;;20.60;99.90;;;;;;4986770;28;20435;-69
2023/07/29 06:16:00;;;;;;;1999.90;999.90;;;20.50;99.90;;;;;;4991216;28;20443;-72
2023/07/29 06:18:27;;;;;;;1999.90;999.90;;;20.30;99.90;;;;;;4987211;28;20446;-70
2023/07/29 06:20:54;;;;;;;1999.90;999.90;;;20.30;99.90;;;;;;4984466;28;20445;-70
2023/07/29 06:23:20;;;;;;;1999.90;999.90;;;20.30;99.90;;;;;;4982040;28;20447;-70
2023/07/29 06:25:47;;;;;;;1999.90;999.90;;;20.30;99.90;;;;;;4985445;28;20447;-71
2023/07/29 06:28:14;;;;;;;1999.90;999.90;;;20.30;99.90;;;;;;4983621;28;20809;-70
2023/07/29 06:30:42;;;;;;;1999.90;999.90;;;20.40;99.90;;;;;;4980896;28;20442;-70
2023/07/29 06:33:09;;;;;;;1999.90;999.90;;;20.50;99.90;;;;;;4988055;28;20434;-67
2023/07/29 06:35:36;;;;;;;1999.90;999.90;;;20.70;99.90;;;;;;4986891;28;20434;-69
2023/07/29 06:38:02;;;;;;;1999.90;999.90;;;20.90;99.90;;;;;;4978220;28;20442;-67
2023/07/29 06:40:29;;;;;;;1999.90;999.90;;;21.20;99.90;;;;;;4979429;28;20447;-67
2023/07/29 06:42:56;;;;;;;1999.90;999.90;;;21.30;99.90;;;;;;4976641;28;20830;-66
2023/07/29 06:45:22;;;;;;;1999.90;999.90;;;21.30;99.90;;;;;;4982084;28;20439;-70
2023/07/29 06:47:50;;;;;;;1999.90;999.90;;;21.30;99.90;;;;;;4975661;28;20568;-67
2023/07/29 06:50:17;;;;;;;1999.90;999.90;;;21.40;99.90;;;;;;4985959;28;20430;-66
2023/07/29 06:52:44;;;;;;;1999.90;999.90;;;21.40;99.90;;;;;;4981427;28;20432;-67
2023/07/29 06:55:11;;;;;;;1999.90;999.90;;;21.50;99.90;;;;;;4986661;28;20461;-68
2023/07/29 06:57:37;;;;;;;1999.90;999.90;;;21.70;99.90;;;;;;4979146;28;20461;-68
2023/07/29 07:00:05;;;;;;;1999.90;999.90;;;21.80;99.90;;;;;;4977501;28;21045;-67
2023/07/29 07:02:32;;;;;;;1999.90;999.90;;;21.80;99.90;;;;;;4980942;28;20430;-67
2023/07/29 07:05:00;;;;;;;1999.90;999.90;;;22.10;99.90;;;;;;4983421;28;20438;-67
2023/07/29 07:07:26;;;;;;;1999.90;999.90;;;22.20;99.90;;;;;;4983798;28;20442;-67
2023/07/29 07:09:55;;;;;;;1999.90;999.90;;;21.70;99.90;;;;;;4986939;28;20950;-67
2023/07/29 07:12:22;;;;;;;1999.90;999.90;;;21.30;99.90;;;;;;4988396;28;20445;-69
2023/07/29 07:14:48;;;;;;;1999.90;999.90;;;21.40;99.90;;;;;;4989042;28;20453;-70
2023/07/29 07:17:15;;;;;;;1999.90;999.90;;;21.60;99.90;;;;;;4984203;28;20485;-69
2023/07/29 07:19:42;;;;;;;1999.90;999.90;;;21.70;99.90;;;;;;4983607;28;20949;-69
2023/07/29 07:22:10;;;;;;;1999.90;999.90;;;21.30;99.90;;;;;;4982900;28;20961;-70
2023/07/29 07:24:37;;;;;;;1999.90;999.90;;;21.10;99.90;;;;;;4981977;28;20442;-70
2023/07/29 07:27:04;;;;;;;1999.90;999.90;;;20.80;99.90;;;;;;4984135;28;20438;-70
2023/07/29 07:29:30;;;;;;;1999.90;999.90;;;20.60;99.90;;;;;;4981186;28;20439;-70
2023/07/29 07:31:57;;;;;;;1999.90;999.90;;;20.40;99.90;;;;;;4983397;28;20434;-71
2023/07/29 07:34:24;;;;;;;1999.90;999.90;;;20.30;99.90;;;;;;4982936;28;20440;-71
2023/07/29 07:36:51;;;;;;;1999.90;999.90;;;20.20;99.90;;;;;;4982309;28;20831;-74
2023/07/29 07:39:19;;;;;;;1999.90;999.90;;;20.30;99.90;;;;;;4983338;28;20516;-71
2023/07/29 07:41:46;;;;;;;1999.90;999.90;;;20.40;99.90;;;;;;4978113;28;20446;-69
2023/07/29 07:44:15;;;;;;;1999.90;999.90;;;20.60;99.90;;;;;;4982722;28;20509;-70
2023/07/29 07:46:42;;;;;;;1999.90;999.90;;;20.60;99.90;;;;;;4985066;28;20534;-70
2023/07/29 07:49:08;;;;;;;1999.90;999.90;;;20.60;99.90;;;;;;4981660;28;20935;-69
2023/07/29 07:51:35;;;;;;;1999.90;999.90;;;20.70;99.90;;;;;;4977695;28;20444;-69
2023/07/29 07:54:02;;;;;;;1999.90;999.90;;;20.40;99.90;;;;;;4980903;28;20490;-70
2023/07/29 07:56:30;;;;;;;1999.90;999.90;;;20.30;99.90;;;;;;4985803;28;20450;-69
2023/07/29 07:58:57;;;;;;;1999.90;999.90;;;20.40;99.90;;;;;;4980837;28;20460;-69
2023/07/29 08:01:23;;;;;;;1999.90;999.90;;;20.40;99.90;;;;;;4979435;28;20438;-70
2023/07/29 08:03:50;;;;;;;1999.90;999.90;;;20.40;99.90;;;;;;4985113;28;20438;-70
2023/07/29 08:06:17;;;;;;;1999.90;999.90;;;20.50;99.90;;;;;;4983181;28;20443;-66
2023/07/29 08:08:43;;;;;;;1999.90;999.90;;;20.80;99.90;;;;;;4983528;28;20445;-70
2023/07/29 08:11:10;;;;;;;1999.90;999.90;;;20.60;99.90;;;;;;4988616;28;20434;-73
2023/07/29 08:13:38;;;;;;;1999.90;999.90;;;20.70;99.90;;;;;;4988686;28;20442;-71
2023/07/29 08:16:05;;;;;;;1999.90;999.90;;;20.50;99.90;;;;;;4987922;28;20435;-70
2023/07/29 08:18:32;;;;;;;1999.90;999.90;;;20.20;99.90;;;;;;4985489;28;20442;-70
2023/07/29 08:21:02;;;;;;;1999.90;999.90;;;20.10;99.90;;;;;;4988015;28;20434;-70
2023/07/29 08:23:30;;;;;;;1999.90;999.90;;;20.10;99.90;;;;;;4991642;28;20469;-71
2023/07/29 08:26:01;;;;;;;1999.90;999.90;;;20.10;99.90;;;;;;4986708;28;20437;-70
2023/07/29 08:28:29;;;;;;;1999.90;999.90;;;20.40;99.90;;;;;;4985085;28;20441;-70
2023/07/29 08:30:57;;;;;;;1999.90;999.90;;;20.40;99.90;;;;;;4979806;28;21062;-71
2023/07/29 08:33:24;;;;;;;1999.90;999.90;;;20.70;99.90;;;;;;4976743;28;20435;-73
2023/07/29 08:35:51;;;;;;;1999.90;999.90;;;21.10;99.90;;;;;;4979766;28;20919;-66
2023/07/29 08:38:18;;;;;;;1999.90;999.90;;;21.30;99.90;;;;;;4985993;28;20445;-66
2023/07/29 08:40:50;;;;;;;1999.90;999.90;;;21.90;99.90;;;;;;4988392;28;20438;-67
2023/07/29 08:43:20;;;;;;;1999.90;999.90;;;22.20;99.90;;;;;;4977774;28;20436;-71
2023/07/29 08:45:47;;;;;;;1999.90;999.90;;;22.70;99.90;;;;;;4987967;28;20855;-71
2023/07/29 08:48:18;;;;;;;1999.90;999.90;;;22.80;99.90;;;;;;4990365;28;20445;-70
2023/07/29 08:50:46;;;;;;;1999.90;999.90;;;22.60;99.90;;;;;;4984798;28;20453;-70
2023/07/29 08:53:13;;;;;;;1999.90;999.90;;;22.50;99.90;;;;;;4986712;28;20437;-70
2023/07/29 08:55:40;;;;;;;1999.90;999.90;;;22.60;99.90;;;;;;4988608;28;20937;-70
2023/07/29 08:58:07;;;;;;;1999.90;999.90;;;23.00;99.90;;;;;;4990067;28;20704;-69
2023/07/29 09:00:35;;;;;;;1999.90;999.90;;;22.80;99.90;;;;;;4990031;28;20434;-70
2023/07/29 09:03:06;;;;;;;1999.90;999.90;;;22.80;99.90;;;;;;4979502;28;20446;-68
2023/07/29 09:05:34;;;;;;;1999.90;999.90;;;22.60;99.90;;;;;;4980167;28;20443;-69
2023/07/29 09:08:02;;;;;;;1999.90;999.90;;;22.70;99.90;;;;;;4991306;28;20434;-69
2023/07/29 09:10:29;;;;;;;1999.90;999.90;;;22.50;99.90;;;;;;4984894;28;20440;-70
2023/07/29 09:12:56;;;;;;;1999.90;999.90;;;22.10;99.90;;;;;;4989628;28;20433;-67
2023/07/29 09:15:35;;;;;;;1999.90;999.90;;;22.10;99.90;;;;;;4983694;28;20438;-67
2023/07/29 09:18:10;;;;;;;1999.90;999.90;;;22.10;99.90;;;;;;4989096;28;20988;-67
2023/07/29 09:20:39;;;;;;;1999.90;999.90;;;22.30;99.90;;;;;;4990621;28;21034;-71
2023/07/29 09:23:08;;;;;;;1999.90;999.90;;;22.50;99.90;;;;;;4976203;28;20418;-69
2023/07/29 09:25:35;;;;;;;1999.90;999.90;;;22.70;99.90;;;;;;4982662;28;20550;-69
2023/07/29 09:28:08;;;;;;;1999.90;999.90;;;22.90;99.90;;;;;;4988616;28;20439;-69
2023/07/29 09:30:35;;;;;;;1999.90;999.90;;;23.10;99.90;;;;;;4977538;28;20431;-69
2023/07/29 09:33:01;;;;;;;1999.90;999.90;;;23.10;99.90;;;;;;4990143;28;20450;-69
2023/07/29 09:35:31;;;;;;;1999.90;999.90;;;23.40;99.90;;;;;;4983078;28;20438;-69
2023/07/29 09:37:59;;;;;;;1999.90;999.90;;;23.60;99.90;;;;;;4992064;28;20435;-69
2023/07/29 09:40:26;;;;;;;1999.90;999.90;;;23.60;99.90;;;;;;4993173;28;20433;-69
2023/07/29 09:42:54;;;;;;;1999.90;999.90;;;23.50;99.90;;;;;;4993236;28;20418;-67
2023/07/29 09:45:22;;;;;;;1999.90;999.90;;;23.40;99.90;;;;;;4992050;28;20439;-69
2023/07/29 09:47:49;;;;;;;1999.90;999.90;;;23.70;99.90;;;;;;4992718;28;20426;-68
2023/07/29 09:50:16;;;;;;;1999.90;999.90;;;23.90;99.90;;;;;;4992698;28;20422;-67
2023/07/29 09:52:44;;;;;;;1999.90;999.90;;;23.80;99.90;;;;;;4992769;28;20834;-68
2023/07/29 09:55:13;;;;;;;1999.90;999.90;;;23.90;99.90;;;;;;4984710;28;20450;-70
2023/07/29 09:57:40;;;;;;;1999.90;999.90;;;24.10;99.90;;;;;;4992617;28;20446;-68
2023/07/29 10:00:10;;;;;;;1999.90;999.90;;;24.00;99.90;;;;;;4992465;28;20794;-69
2023/07/29 10:02:38;;;;;;;1999.90;999.90;;;23.90;99.90;;;;;;4992746;28;20426;-69
2023/07/29 10:05:06;;;;;;;1999.90;999.90;;;24.00;99.90;;;;;;4986080;28;20456;-70
2023/07/29 10:07:34;;;;;;;1999.90;999.90;;;24.00;99.90;;;;;;4979357;28;20441;-72
2023/07/29 10:10:03;;;;;;;1999.90;999.90;;;24.10;99.90;;;;;;4992176;28;20929;-70
2023/07/29 10:12:32;;;;;;;1999.90;999.90;;;24.30;99.90;;;;;;4992521;28;20418;-69
2023/07/29 10:15:01;;;;;;;1999.90;999.90;;;24.40;99.90;;;;;;4992374;28;20789;-69
2023/07/29 10:17:28;;;;;;;1999.90;999.90;;;24.80;99.90;;;;;;4991405;28;20434;-70
2023/07/29 10:19:58;;;;;;;1999.90;999.90;;;25.00;99.90;;;;;;4991288;28;20442;-69
2023/07/29 10:22:28;;;;;;;1999.90;999.90;;;25.00;99.90;;;;;;4992342;28;20426;-70
2023/07/29 10:24:57;;;;;;;1999.90;999.90;;;25.10;99.90;;;;;;4992249;28;20426;-69
2023/07/29 10:27:25;;;;;;;1999.90;999.90;;;24.70;99.90;;;;;;4992350;28;20917;-69
2023/07/29 10:29:56;;;;;;;1999.90;999.90;;;24.40;99.90;;;;;;4991095;28;20474;-70
2023/07/29 10:32:26;;;;;;;1999.90;999.90;;;24.50;99.90;;;;;;4991943;28;20908;-69
2023/07/29 10:34:53;;;;;;;1999.90;999.90;;;24.30;99.90;;;;;;4991642;28;20529;-69
2023/07/29 10:37:20;;;;;;;1999.90;999.90;;;23.90;99.90;;;;;;4992089;28;20816;-68
2023/07/29 10:39:54;;;;;;;1999.90;999.90;;;23.50;99.90;;;;;;4991634;28;20921;-68
2023/07/29 10:42:20;;;;;;;1999.90;999.90;;;23.20;99.90;;;;;;4989840;28;20469;-67
2023/07/29 10:44:53;;;;;;;1999.90;999.90;;;23.00;99.90;;;;;;4991181;28;20430;-68
2023/07/29 10:47:22;;;;;;;1999.90;999.90;;;22.90;99.90;;;;;;4991808;28;20429;-67
2023/07/29 10:49:51;;;;;;;1999.90;999.90;;;22.80;99.90;;;;;;4991786;28;20418;-67
2023/07/29 10:52:38;;;;;;;1999.90;999.90;;;23.10;99.90;;;;;;4991132;28;20422;-69
2023/07/29 10:55:23;;;;;;;1999.90;999.90;;;23.70;99.90;;;;;;4991055;28;20442;-69
2023/07/29 10:57:49;;;;;;;1999.90;999.90;;;23.90;99.90;;;;;;4991197;28;20421;-69
2023/07/29 11:00:21;;;;;;;1999.90;999.90;;;24.10;99.90;;;;;;4991530;28;20418;-70
2023/07/29 11:03:00;;;;;;;1999.90;999.90;;;24.20;99.90;;;;;;4991200;28;20433;-70
2023/07/29 11:05:26;;;;;;;1999.90;999.90;;;24.70;99.90;;;;;;4984599;28;20469;-70
2023/07/29 11:07:53;;;;;;;1999.90;999.90;;;25.10;99.90;;;;;;4991212;28;20425;-69
2023/07/29 11:10:20;;;;;;;1999.90;999.90;;;25.30;99.90;;;;;;4990246;28;20438;-69
2023/07/29 11:12:48;;;;;;;1999.90;999.90;;;25.00;99.90;;;;;;4983664;28;20440;-71
2023/07/29 11:15:27;;;;;;;1999.90;999.90;;;24.80;99.90;;;;;;4982657;28;20787;-70
2023/07/29 11:17:54;;;;;;;1999.90;999.90;;;25.00;99.90;;;;;;4981561;28;20438;-70
2023/07/29 11:20:23;;;;;;;1999.90;999.90;;;25.40;99.90;;;;;;4982843;28;20946;-71
2023/07/29 11:22:50;;;;;;;1999.90;999.90;;;25.50;99.90;;;;;;4980485;28;20485;-72
2023/07/29 11:25:18;;;;;;;1999.90;999.90;;;25.40;99.90;;;;;;4986914;28;20430;-71
2023/07/29 11:27:45;;;;;;;1999.90;999.90;;;25.40;99.90;;;;;;4984694;28;20536;-69
2023/07/29 11:30:13;;;;;;;1999.90;999.90;;;25.40;99.90;;;;;;4989216;28;20448;-71
2023/07/29 11:32:43;;;;;;;1999.90;999.90;;;25.10;99.90;;;;;;4988615;28;20807;-70
2023/07/29 11:35:12;;;;;;;1999.90;999.90;;;25.10;99.90;;;;;;4987208;28;20442;-69
2023/07/29 11:37:40;;;;;;;1999.90;999.90;;;25.00;99.90;;;;;;4983157;28;20535;-70
2023/07/29 11:40:10;;;;;;;1999.90;999.90;;;24.90;99.90;;;;;;4987448;28;20514;-70
2023/07/29 11:42:37;;;;;;;1999.90;999.90;;;24.90;99.90;;;;;;4988832;28;20438;-70
2023/07/29 11:45:06;;;;;;;1999.90;999.90;;;24.90;99.90;;;;;;4985104;28;20441;-73
2023/07/29 11:47:35;;;;;;;1999.90;999.90;;;24.50;99.90;;;;;;4983251;28;20449;-69
2023/07/29 11:50:04;;;;;;;1999.90;999.90;;;24.30;99.90;;;;;;4986352;28;20442;-70
2023/07/29 11:52:32;;;;;;;1999.90;999.90;;;24.00;99.90;;;;;;4988085;28;20922;-70
2023/07/29 11:54:59;;;;;;;1999.90;999.90;;;24.00;99.90;;;;;;4984674;28;20432;-68
2023/07/29 11:57:26;;;;;;;1999.90;999.90;;;23.50;99.90;;;;;;5011614;23;20441;-72
2023/07/29 11:59:54;;;;;;;1999.90;999.90;;;23.30;99.90;;;;;;4994045;28;20518;-70
2023/07/29 12:02:21;;;;;;;1999.90;999.90;;;23.20;99.90;;;;;;4985380;28;20508;-69